Time;durP1;ratioP1;P1;durP2;ratioP2;P2;SDS_P1;SDS_P2;PMS_P1;PMS_P2;Temp;Humidity;BMP_temperature;BMP_pressure;BME280_temperature;BME280_humidity;BME280_pressure;Samples;Min_cycle;Max_cycle;Signal;HPM_P1;HPM_P2
2023/09/15 00:01:13;;;;;;;2.60;1.80;;;24.20;51.20;;;;;;5087046;27;45451;-66
2023/09/15 00:03:40;;;;;;;2.42;1.60;;;24.20;51.20;;;;;;5087126;27;45395;-66
2023/09/15 00:06:07;;;;;;;1.58;1.25;;;24.20;51.30;;;;;;5087238;27;45270;-66
2023/09/15 00:08:34;;;;;;;1.40;1.30;;;24.20;51.20;;;;;;5087159;27;45307;-66
2023/09/15 00:11:01;;;;;;;1.60;1.50;;;24.20;51.30;;;;;;5087016;27;46499;-66
2023/09/15 00:13:28;;;;;;;2.05;1.40;;;24.10;51.20;;;;;;5086903;27;45312;-66
2023/09/15 00:15:55;;;;;;;1.83;1.55;;;24.10;51.30;;;;;;5086875;27;45229;-66
2023/09/15 00:18:25;;;;;;;2.30;1.42;;;24.10;51.20;;;;;;5087311;27;45225;-67
2023/09/15 00:20:52;;;;;;;1.33;1.23;;;24.10;51.30;;;;;;5086762;27;46299;-66
2023/09/15 00:23:19;;;;;;;1.35;1.17;;;24.10;51.30;;;;;;5086738;27;45382;-66
2023/09/15 00:25:46;;;;;;;1.38;1.17;;;24.10;51.30;;;;;;5086851;27;45272;-66
2023/09/15 00:28:13;;;;;;;1.40;1.30;;;24.10;51.30;;;;;;5086852;27;45576;-66
2023/09/15 00:30:40;;;;;;;1.88;1.55;;;24.10;51.30;;;;;;5086531;27;45507;-66
2023/09/15 00:33:07;;;;;;;2.00;1.15;;;24.10;51.30;;;;;;5086459;27;45378;-66
2023/09/15 00:35:35;;;;;;;1.50;1.40;;;24.00;51.30;;;;;;5086919;27;45312;-66
2023/09/15 00:38:02;;;;;;;2.08;1.30;;;24.00;51.30;;;;;;5086768;27;45416;-66
2023/09/15 00:40:29;;;;;;;1.27;1.17;;;24.00;51.30;;;;;;5086381;27;45553;-66
2023/09/15 00:42:56;;;;;;;1.30;1.20;;;24.00;51.20;;;;;;5085940;27;45303;-66
2023/09/15 00:45:23;;;;;;;1.75;1.25;;;24.00;51.30;;;;;;5086566;27;45347;-67
2023/09/15 00:47:52;;;;;;;2.67;1.58;;;24.00;51.20;;;;;;5086544;27;45352;-66
2023/09/15 00:50:21;;;;;;;1.20;1.17;;;23.90;51.20;;;;;;5086169;27;46920;-66
2023/09/15 00:52:51;;;;;;;1.40;1.30;;;23.90;51.20;;;;;;5086353;27;45375;-65
2023/09/15 00:55:19;;;;;;;1.27;1.17;;;23.90;51.20;;;;;;5086464;27;45319;-66
2023/09/15 00:57:46;;;;;;;2.88;1.58;;;23.90;51.20;;;;;;5086319;27;45256;-66
2023/09/15 01:00:14;;;;;;;1.50;1.40;;;23.90;51.30;;;;;;5086140;27;45535;-67
2023/09/15 01:02:42;;;;;;;2.17;1.63;;;23.90;51.30;;;;;;5086139;27;45407;-66
2023/09/15 01:05:10;;;;;;;2.13;1.27;;;23.90;51.30;;;;;;5086232;27;45271;-66
2023/09/15 01:07:37;;;;;;;1.98;1.30;;;23.90;51.30;;;;;;5086280;27;45556;-66
2023/09/15 01:10:07;;;;;;;1.30;1.20;;;23.90;51.30;;;;;;5085875;27;46651;-66
2023/09/15 01:12:34;;;;;;;1.15;1.05;;;23.90;51.20;;;;;;5086007;27;45265;-66
2023/09/15 01:15:02;;;;;;;1.40;1.30;;;23.80;51.20;;;;;;5086139;27;45318;-66
2023/09/15 01:17:33;;;;;;;1.42;1.00;;;23.80;51.70;;;;;;5086247;27;45387;-66
2023/09/15 01:20:06;;;;;;;1.67;1.20;;;23.80;51.20;;;;;;5085841;27;46383;-66
2023/09/15 01:23:04;;;;;;;1.63;1.30;;;23.80;51.20;;;;;;5085814;28;45331;-67
2023/09/15 01:25:55;;;;;;;2.17;1.30;;;23.80;51.20;;;;;;5085112;27;45341;-67
2023/09/15 01:28:35;;;;;;;1.45;1.35;;;23.80;51.20;;;;;;5084043;27;45288;-66
2023/09/15 01:31:03;;;;;;;2.08;1.20;;;23.70;51.20;;;;;;5085750;27;45512;-66
2023/09/15 01:33:30;;;;;;;1.25;1.02;;;23.70;51.20;;;;;;5085924;27;45397;-66
2023/09/15 01:35:57;;;;;;;1.42;1.17;;;23.70;51.20;;;;;;5086024;27;45535;-65
2023/09/15 01:38:24;;;;;;;1.35;1.25;;;23.70;51.20;;;;;;5086137;27;45316;-66
2023/09/15 01:40:51;;;;;;;1.50;1.10;;;23.70;51.20;;;;;;5085943;27;45315;-67
2023/09/15 01:43:17;;;;;;;2.78;1.35;;;23.70;51.10;;;;;;5085168;27;45449;-66
2023/09/15 01:45:44;;;;;;;2.58;1.20;;;23.70;51.20;;;;;;5085862;27;45635;-66
2023/09/15 01:48:12;;;;;;;1.38;1.00;;;23.70;51.10;;;;;;5086076;27;45509;-65
2023/09/15 01:50:39;;;;;;;1.50;1.30;;;23.70;51.10;;;;;;5085725;27;45259;-66
2023/09/15 01:53:06;;;;;;;1.08;0.93;;;23.70;51.20;;;;;;5085591;27;45423;-66
2023/09/15 01:55:33;;;;;;;1.13;1.10;;;23.60;51.10;;;;;;5085632;27;45383;-66
2023/09/15 01:58:00;;;;;;;1.88;1.48;;;23.60;51.10;;;;;;5085783;27;45476;-66
2023/09/15 02:00:33;;;;;;;1.83;1.10;;;23.60;51.10;;;;;;5085502;27;45285;-66
2023/09/15 02:03:00;;;;;;;2.03;1.20;;;23.60;51.20;;;;;;5085369;27;45307;-66
2023/09/15 02:05:28;;;;;;;1.98;1.20;;;23.60;51.20;;;;;;5085451;27;45347;-66
2023/09/15 02:07:55;;;;;;;2.28;1.20;;;23.50;51.10;;;;;;5086063;27;45296;-66
2023/09/15 02:10:22;;;;;;;1.00;1.00;;;23.50;51.10;;;;;;5086416;27;45265;-66
2023/09/15 02:12:49;;;;;;;2.10;1.45;;;23.50;51.10;;;;;;5088886;27;45308;-66
2023/09/15 02:15:17;;;;;;;1.30;1.20;;;23.50;51.10;;;;;;5089205;27;45336;-67
2023/09/15 02:17:43;;;;;;;1.85;1.17;;;23.50;51.10;;;;;;5089160;27;45411;-66
2023/09/15 02:20:12;;;;;;;1.40;1.02;;;23.50;51.10;;;;;;5088965;27;45577;-66
2023/09/15 02:22:41;;;;;;;1.50;1.20;;;23.50;51.10;;;;;;5088678;27;45396;-66
2023/09/15 02:25:09;;;;;;;1.25;1.17;;;23.50;51.10;;;;;;5088908;27;45321;-66
2023/09/15 02:27:36;;;;;;;2.33;1.30;;;23.50;51.10;;;;;;5088949;27;45532;-66
2023/09/15 02:30:04;;;;;;;2.45;1.40;;;23.40;51.10;;;;;;5088772;27;45322;-66
2023/09/15 02:32:31;;;;;;;1.60;1.00;;;23.40;51.10;;;;;;5088391;27;45415;-67
2023/09/15 02:34:58;;;;;;;2.65;1.38;;;23.40;51.70;;;;;;5088595;27;45437;-66
2023/09/15 02:37:25;;;;;;;1.88;1.10;;;23.40;51.10;;;;;;5088816;27;45289;-66
2023/09/15 02:39:53;;;;;;;1.40;1.30;;;23.40;51.20;;;;;;5088360;27;45267;-67
2023/09/15 02:42:20;;;;;;;1.77;1.40;;;23.40;51.10;;;;;;5088076;27;45401;-66
2023/09/15 02:44:47;;;;;;;0.82;0.82;;;23.40;51.10;;;;;;5088361;27;45417;-66
2023/09/15 02:47:14;;;;;;;1.90;1.38;;;23.30;51.70;;;;;;5088761;27;45304;-66
2023/09/15 02:49:41;;;;;;;2.83;1.20;;;23.30;51.10;;;;;;5088213;27;46733;-66
2023/09/15 02:52:08;;;;;;;1.02;0.98;;;23.30;51.10;;;;;;5088468;27;45364;-67
2023/09/15 02:54:35;;;;;;;1.80;1.10;;;23.30;51.10;;;;;;5088232;27;45355;-67
2023/09/15 02:57:03;;;;;;;1.45;1.20;;;23.30;51.10;;;;;;5088766;27;45466;-67
2023/09/15 02:59:30;;;;;;;1.30;1.02;;;23.30;51.10;;;;;;5088221;27;47483;-66
2023/09/15 03:01:59;;;;;;;1.30;1.20;;;23.20;51.10;;;;;;5088080;27;45273;-66
2023/09/15 03:04:26;;;;;;;1.33;1.20;;;23.20;51.10;;;;;;5088119;27;45379;-67
2023/09/15 03:06:53;;;;;;;1.77;1.00;;;23.20;51.00;;;;;;5088606;27;45412;-67
2023/09/15 03:09:20;;;;;;;1.58;1.00;;;23.20;51.00;;;;;;5087820;27;46717;-67
2023/09/15 03:11:47;;;;;;;1.38;0.98;;;23.20;51.10;;;;;;5088011;27;45269;-67
2023/09/15 03:14:18;;;;;;;2.28;1.00;;;23.20;51.00;;;;;;5087951;27;45428;-67
2023/09/15 03:16:45;;;;;;;2.40;1.60;;;23.20;51.00;;;;;;5088283;27;45250;-66
2023/09/15 03:19:12;;;;;;;2.55;1.38;;;23.20;51.10;;;;;;5087717;27;46371;-66
2023/09/15 03:21:39;;;;;;;1.98;1.10;;;23.20;51.00;;;;;;5087598;27;45557;-67
2023/09/15 03:24:06;;;;;;;2.55;1.10;;;23.10;51.00;;;;;;5087809;27;45314;-66
2023/09/15 03:26:35;;;;;;;1.25;1.08;;;23.10;51.00;;;;;;5088249;27;45408;-67
2023/09/15 03:29:02;;;;;;;1.15;1.00;;;23.10;51.00;;;;;;5087640;27;47559;-67
2023/09/15 03:31:30;;;;;;;1.10;1.00;;;23.10;51.00;;;;;;5087755;27;45555;-67
2023/09/15 03:33:57;;;;;;;1.23;1.00;;;23.10;51.00;;;;;;5087994;27;45475;-67
2023/09/15 03:36:26;;;;;;;1.00;1.00;;;23.10;51.10;;;;;;5088016;27;45478;-67
2023/09/15 03:38:52;;;;;;;3.03;1.20;;;23.00;51.00;;;;;;5087433;27;46492;-66
2023/09/15 03:41:19;;;;;;;1.73;1.00;;;23.00;50.90;;;;;;5087535;27;45410;-67
2023/09/15 03:43:46;;;;;;;1.35;1.13;;;23.00;51.00;;;;;;5087515;27;45339;-66
2023/09/15 03:46:13;;;;;;;1.10;1.00;;;23.00;51.00;;;;;;5087563;27;45490;-66
2023/09/15 03:48:41;;;;;;;2.13;1.08;;;23.00;51.00;;;;;;5087289;27;45392;-66
2023/09/15 03:51:08;;;;;;;1.25;0.90;;;23.00;51.00;;;;;;5087504;27;45357;-67
2023/09/15 03:53:35;;;;;;;3.72;1.40;;;23.00;51.00;;;;;;5087545;27;45319;-67
2023/09/15 03:56:03;;;;;;;0.90;0.90;;;23.00;51.00;;;;;;5087543;27;45343;-67
2023/09/15 03:58:30;;;;;;;1.67;1.13;;;22.90;51.00;;;;;;5087412;27;45427;-66
2023/09/15 04:00:57;;;;;;;1.45;1.08;;;22.90;51.00;;;;;;5084604;27;45264;-67
2023/09/15 04:03:24;;;;;;;1.42;1.00;;;22.90;51.00;;;;;;5087190;27;45245;-67
2023/09/15 04:05:53;;;;;;;1.08;0.98;;;22.90;51.00;;;;;;5087341;27;45593;-66
2023/09/15 04:08:19;;;;;;;1.20;1.10;;;22.90;51.00;;;;;;5086883;27;45347;-67
2023/09/15 04:10:46;;;;;;;1.10;0.95;;;22.90;51.00;;;;;;5086915;27;46014;-67
2023/09/15 04:13:13;;;;;;;1.80;1.15;;;22.90;51.00;;;;;;5087013;27;45319;-66
2023/09/15 04:15:40;;;;;;;1.13;1.02;;;22.90;51.00;;;;;;5087326;27;45402;-66
2023/09/15 04:18:08;;;;;;;1.13;1.02;;;22.90;51.00;;;;;;5086956;27;46392;-66
2023/09/15 04:20:35;;;;;;;1.48;0.98;;;22.80;50.90;;;;;;5086978;27;45319;-66
2023/09/15 04:23:03;;;;;;;1.15;1.10;;;22.80;51.60;;;;;;5086864;27;45322;-67
2023/09/15 04:25:30;;;;;;;1.10;0.95;;;22.80;51.00;;;;;;5086987;27;45454;-66
2023/09/15 04:27:57;;;;;;;1.10;1.00;;;22.80;51.00;;;;;;5086662;27;46626;-66
2023/09/15 04:30:24;;;;;;;1.30;1.05;;;22.80;51.00;;;;;;5086583;27;45363;-66
2023/09/15 04:32:50;;;;;;;1.52;1.42;;;22.80;51.00;;;;;;5085999;27;45261;-66
2023/09/15 04:35:18;;;;;;;1.30;1.10;;;22.70;50.90;;;;;;5086813;27;45283;-66
2023/09/15 04:37:45;;;;;;;1.85;1.05;;;22.70;51.60;;;;;;5086543;27;45533;-66
2023/09/15 04:40:14;;;;;;;2.35;2.15;;;22.70;51.00;;;;;;5086529;27;45324;-66
2023/09/15 04:42:41;;;;;;;1.33;1.10;;;22.70;51.00;;;;;;5086437;27;45365;-66
2023/09/15 04:45:08;;;;;;;1.30;1.10;;;22.70;51.00;;;;;;5086759;27;45262;-66
2023/09/15 04:47:35;;;;;;;1.00;0.80;;;22.70;51.00;;;;;;5086530;27;46387;-66
2023/09/15 04:50:02;;;;;;;1.90;0.88;;;22.70;51.10;;;;;;5086379;27;45497;-67
2023/09/15 04:52:29;;;;;;;0.90;0.73;;;22.70;51.10;;;;;;5086486;27;45376;-66
2023/09/15 04:54:56;;;;;;;2.35;1.00;;;22.60;51.00;;;;;;5086489;27;45510;-66
2023/09/15 04:57:24;;;;;;;1.00;1.00;;;22.60;51.00;;;;;;5086156;27;45378;-66
2023/09/15 04:59:53;;;;;;;1.15;1.02;;;22.60;51.00;;;;;;5086197;27;45391;-66
2023/09/15 05:02:22;;;;;;;1.17;1.08;;;22.60;51.00;;;;;;5086350;27;45269;-66
2023/09/15 05:04:49;;;;;;;2.40;1.60;;;22.60;51.00;;;;;;5086373;27;45306;-66
2023/09/15 05:07:16;;;;;;;1.33;1.17;;;22.60;51.00;;;;;;5086107;27;45480;-66
2023/09/15 05:09:43;;;;;;;1.00;1.00;;;22.60;51.00;;;;;;5085969;27;45341;-66
2023/09/15 05:12:10;;;;;;;1.30;1.17;;;22.60;51.60;;;;;;5086397;27;45257;-66
2023/09/15 05:14:38;;;;;;;1.08;1.00;;;22.60;51.00;;;;;;5086086;27;45407;-66
2023/09/15 05:17:05;;;;;;;1.85;1.20;;;22.60;51.60;;;;;;5085903;27;46704;-67
2023/09/15 05:19:32;;;;;;;1.55;1.10;;;22.50;50.90;;;;;;5086038;27;45371;-66
2023/09/15 05:21:58;;;;;;;1.33;1.00;;;22.50;51.00;;;;;;5086121;27;45350;-66
2023/09/15 05:24:25;;;;;;;1.42;0.90;;;22.50;51.00;;;;;;5086359;27;45374;-67
2023/09/15 05:26:52;;;;;;;2.10;0.90;;;22.50;51.00;;;;;;5085939;27;45395;-66
2023/09/15 05:29:19;;;;;;;1.50;1.10;;;22.50;51.00;;;;;;5085897;27;45411;-66
2023/09/15 05:31:47;;;;;;;1.30;1.20;;;22.50;51.30;;;;;;5085877;27;45260;-67
2023/09/15 05:34:14;;;;;;;1.42;1.30;;;22.50;51.00;;;;;;5086171;27;45390;-66
2023/09/15 05:36:41;;;;;;;1.58;1.05;;;22.50;51.00;;;;;;5085615;27;45328;-67
2023/09/15 05:39:08;;;;;;;1.40;1.02;;;22.50;51.00;;;;;;5085724;27;45351;-66
2023/09/15 05:41:35;;;;;;;1.50;1.10;;;22.50;51.00;;;;;;5085655;27;45441;-66
2023/09/15 05:44:02;;;;;;;0.80;0.80;;;22.40;51.00;;;;;;5086713;27;45342;-66
2023/09/15 05:46:29;;;;;;;1.45;0.90;;;22.50;51.00;;;;;;5089164;27;48744;-66
2023/09/15 05:48:57;;;;;;;1.40;1.02;;;22.40;50.90;;;;;;5089222;27;45339;-67
2023/09/15 05:51:24;;;;;;;1.40;1.23;;;22.40;51.00;;;;;;5089357;27;45261;-66
2023/09/15 05:53:51;;;;;;;1.08;1.00;;;22.40;51.00;;;;;;5089241;27;45418;-66
2023/09/15 05:56:18;;;;;;;1.20;1.00;;;22.40;51.00;;;;;;5088834;27;46512;-67
2023/09/15 05:58:45;;;;;;;1.02;0.85;;;22.40;51.00;;;;;;5088993;27;45525;-66
2023/09/15 06:01:12;;;;;;;0.80;0.80;;;22.40;51.00;;;;;;5089246;27;45322;-66
2023/09/15 06:03:39;;;;;;;1.65;1.05;;;22.40;51.00;;;;;;5089184;27;45315;-66
2023/09/15 06:06:07;;;;;;;1.63;0.95;;;22.40;50.90;;;;;;5088666;27;46392;-66
2023/09/15 06:08:34;;;;;;;1.48;1.00;;;22.40;50.90;;;;;;5088870;27;45324;-66
2023/09/15 06:11:03;;;;;;;2.20;1.13;;;22.40;50.80;;;;;;5088857;27;45281;-66
2023/09/15 06:13:29;;;;;;;1.27;1.17;;;22.40;50.90;;;;;;5088874;27;45547;-66
2023/09/15 06:15:56;;;;;;;1.20;1.10;;;22.40;50.90;;;;;;5088584;27;46520;-66
2023/09/15 06:18:23;;;;;;;2.83;1.17;;;22.40;50.80;;;;;;5088946;27;45451;-66
2023/09/15 06:20:51;;;;;;;1.40;1.20;;;22.40;50.90;;;;;;5088779;27;45470;-66
2023/09/15 06:23:19;;;;;;;1.25;1.10;;;22.40;50.90;;;;;;5088889;27;45404;-66
2023/09/15 06:25:46;;;;;;;1.60;1.30;;;22.40;50.80;;;;;;5088452;27;45271;-66
2023/09/15 06:28:13;;;;;;;2.42;1.38;;;22.40;50.90;;;;;;5088540;27;45370;-66
2023/09/15 06:30:40;;;;;;;1.58;1.30;;;22.40;50.80;;;;;;5088832;27;45506;-66
2023/09/15 06:33:07;;;;;;;1.00;0.75;;;22.40;50.80;;;;;;5088810;27;45299;-66
2023/09/15 06:35:34;;;;;;;1.10;1.00;;;22.40;51.10;;;;;;5088388;27;45315;-66
2023/09/15 06:38:01;;;;;;;1.77;1.10;;;22.40;50.90;;;;;;5088524;27;45314;-66
2023/09/15 06:40:29;;;;;;;1.05;0.95;;;22.40;50.90;;;;;;5088691;27;45398;-66
2023/09/15 06:42:56;;;;;;;1.58;1.17;;;22.40;50.80;;;;;;5087782;27;45313;-66
2023/09/15 06:45:23;;;;;;;2.08;1.13;;;22.40;51.50;;;;;;5087839;27;45412;-66
2023/09/15 06:47:50;;;;;;;1.02;0.95;;;22.40;50.80;;;;;;5088424;27;45357;-66
2023/09/15 06:50:16;;;;;;;1.95;1.00;;;22.40;51.40;;;;;;5088433;27;45251;-67
2023/09/15 06:52:44;;;;;;;1.15;1.00;;;22.40;50.80;;;;;;5088530;27;45506;-66
2023/09/15 06:55:10;;;;;;;1.90;1.20;;;22.40;50.80;;;;;;5087991;27;46699;-66
2023/09/15 06:57:39;;;;;;;1.13;0.75;;;22.40;50.80;;;;;;5087582;27;45257;-67
2023/09/15 07:00:07;;;;;;;1.42;0.95;;;22.50;50.80;;;;;;5088255;27;45280;-66
2023/09/15 07:02:34;;;;;;;1.00;0.90;;;22.50;50.80;;;;;;5088706;27;45315;-66
2023/09/15 07:05:01;;;;;;;4.32;1.17;;;22.50;50.80;;;;;;5088039;27;46375;-66
2023/09/15 07:07:27;;;;;;;1.15;0.85;;;22.50;50.80;;;;;;5087912;27;45341;-66
2023/09/15 07:09:55;;;;;;;3.45;1.50;;;22.50;50.80;;;;;;5087964;27;45336;-67
2023/09/15 07:12:22;;;;;;;5.22;1.95;;;22.50;50.80;;;;;;5088379;27;45335;-66
2023/09/15 07:14:50;;;;;;;3.38;2.03;;;22.50;50.80;;;;;;5087665;27;45431;-66
2023/09/15 07:17:17;;;;;;;5.93;2.75;;;22.50;50.80;;;;;;5088185;27;45265;-67
2023/09/15 07:19:46;;;;;;;7.45;3.40;;;22.50;50.80;;;;;;5088053;27;45277;-67
2023/09/15 07:22:13;;;;;;;7.38;3.55;;;22.50;50.80;;;;;;5088261;27;45441;-66
2023/09/15 07:24:40;;;;;;;11.95;4.10;;;22.50;50.80;;;;;;5087662;27;45616;-66
2023/09/15 07:27:08;;;;;;;10.10;4.47;;;22.50;51.40;;;;;;5087756;27;45364;-66
2023/09/15 07:29:35;;;;;;;17.98;6.18;;;22.60;50.80;;;;;;5087782;27;45347;-66
2023/09/15 07:32:04;;;;;;;12.48;5.10;;;22.60;50.80;;;;;;5087917;27;45523;-66
2023/09/15 07:34:31;;;;;;;12.10;5.40;;;22.60;50.80;;;;;;5087462;27;45461;-66
2023/09/15 07:36:59;;;;;;;13.02;5.50;;;22.60;50.80;;;;;;5087537;27;45276;-66
2023/09/15 07:39:26;;;;;;;14.23;5.90;;;22.60;50.80;;;;;;5087497;27;45252;-67
2023/09/15 07:41:53;;;;;;;13.88;5.45;;;22.60;50.80;;;;;;5087533;27;45302;-66
2023/09/15 07:44:20;;;;;;;11.95;5.20;;;22.60;50.80;;;;;;5087214;27;45338;-66
2023/09/15 07:46:46;;;;;;;10.95;5.18;;;22.60;50.80;;;;;;5080508;27;46222;-66
2023/09/15 07:49:15;;;;;;;11.73;5.78;;;22.60;50.90;;;;;;5074487;27;45244;-66
2023/09/15 07:51:41;;;;;;;12.20;5.38;;;22.60;50.80;;;;;;5083707;28;45251;-66
2023/09/15 07:54:08;;;;;;;12.52;4.93;;;22.60;50.90;;;;;;5086930;27;46125;-66
2023/09/15 07:56:36;;;;;;;11.77;5.30;;;22.60;50.90;;;;;;5067219;28;45376;-66
2023/09/15 07:59:03;;;;;;;9.63;4.50;;;22.60;50.80;;;;;;5067426;28;45332;-66
2023/09/15 08:01:30;;;;;;;9.93;4.45;;;22.70;50.80;;;;;;5067617;28;45237;-66
2023/09/15 08:03:57;;;;;;;10.50;4.25;;;22.70;50.90;;;;;;5067277;28;45479;-66
2023/09/15 08:06:26;;;;;;;10.77;4.20;;;22.70;50.90;;;;;;5067195;28;45209;-66
2023/09/15 08:08:53;;;;;;;9.05;3.97;;;22.70;50.90;;;;;;5063568;28;45232;-66
2023/09/15 08:11:20;;;;;;;9.48;4.65;;;22.70;50.80;;;;;;5067285;28;45130;-66
2023/09/15 08:13:47;;;;;;;9.30;4.45;;;22.70;50.90;;;;;;5066924;28;45212;-67
2023/09/15 08:16:13;;;;;;;7.50;4.25;;;22.70;50.90;;;;;;5067038;28;45356;-66
2023/09/15 08:18:40;;;;;;;9.50;4.30;;;22.80;50.90;;;;;;5067075;28;45291;-66
2023/09/15 08:21:07;;;;;;;8.05;4.05;;;22.80;50.90;;;;;;5067267;28;45329;-66
2023/09/15 08:23:35;;;;;;;9.27;4.20;;;22.80;50.80;;;;;;5066786;28;46397;-66
2023/09/15 08:26:02;;;;;;;7.10;3.58;;;22.80;50.70;;;;;;5066849;28;45219;-66
2023/09/15 08:28:29;;;;;;;8.90;3.30;;;22.90;50.80;;;;;;5066986;28;45345;-66
2023/09/15 08:30:56;;;;;;;7.10;3.47;;;22.90;50.70;;;;;;5067038;28;45428;-66
2023/09/15 08:33:23;;;;;;;5.80;3.35;;;22.90;50.80;;;;;;5066557;28;45506;-66
2023/09/15 08:35:49;;;;;;;6.90;3.47;;;22.90;50.90;;;;;;5066517;28;45278;-66
2023/09/15 08:38:16;;;;;;;8.82;3.47;;;22.90;50.80;;;;;;5066778;28;45217;-66
2023/09/15 08:40:47;;;;;;;7.72;3.90;;;22.90;50.80;;;;;;5067087;28;45324;-66
2023/09/15 08:43:14;;;;;;;6.05;3.22;;;22.90;50.80;;;;;;5066446;28;46643;-66
2023/09/15 08:45:41;;;;;;;5.05;2.80;;;22.90;50.80;;;;;;5066627;28;45156;-66
2023/09/15 08:48:08;;;;;;;5.57;3.20;;;23.00;50.80;;;;;;5066658;28;45387;-66
2023/09/15 08:50:35;;;;;;;5.05;2.90;;;23.00;50.90;;;;;;5066622;28;45232;-66
2023/09/15 08:53:01;;;;;;;5.32;3.05;;;23.00;50.90;;;;;;5066445;28;45410;-66
2023/09/15 08:55:28;;;;;;;6.28;3.10;;;23.00;51.40;;;;;;5066491;28;45273;-66
2023/09/15 08:57:57;;;;;;;6.32;3.20;;;23.00;50.70;;;;;;5066745;28;45204;-67
2023/09/15 09:00:24;;;;;;;4.93;3.00;;;23.10;50.80;;;;;;5066539;28;45397;-66
2023/09/15 09:02:52;;;;;;;4.05;2.50;;;23.10;50.80;;;;;;5066134;28;45284;-66
2023/09/15 09:05:19;;;;;;;6.32;3.40;;;23.10;50.70;;;;;;5066232;28;45367;-67
2023/09/15 09:07:46;;;;;;;5.80;2.53;;;23.10;51.20;;;;;;5066244;28;45205;-66
2023/09/15 09:10:13;;;;;;;6.50;3.13;;;23.20;50.70;;;;;;5066359;28;45242;-66
2023/09/15 09:12:40;;;;;;;5.57;2.85;;;23.20;50.60;;;;;;5065941;28;45399;-66
2023/09/15 09:15:09;;;;;;;5.50;2.95;;;23.20;50.60;;;;;;5066042;28;45382;-66
2023/09/15 09:17:36;;;;;;;7.25;2.45;;;23.20;50.60;;;;;;5066118;28;45233;-66
2023/09/15 09:20:05;;;;;;;6.72;2.80;;;23.20;50.60;;;;;;5065756;28;45435;-66
2023/09/15 09:22:34;;;;;;;7.05;2.63;;;23.20;50.60;;;;;;5065832;28;46597;-66
2023/09/15 09:25:01;;;;;;;6.43;2.70;;;23.30;50.60;;;;;;5065737;28;45336;-66
2023/09/15 09:27:32;;;;;;;4.40;2.60;;;23.30;50.70;;;;;;5066101;28;45296;-66
2023/09/15 09:29:58;;;;;;;4.90;2.72;;;23.40;51.40;;;;;;5066188;28;45408;-66
2023/09/15 09:32:27;;;;;;;5.13;2.58;;;23.30;50.70;;;;;;5065780;28;45293;-66
2023/09/15 09:34:54;;;;;;;6.68;2.28;;;23.40;50.80;;;;;;5065770;28;45323;-66
2023/09/15 09:37:25;;;;;;;5.13;2.50;;;23.40;50.80;;;;;;5065911;28;45401;-66
2023/09/15 09:39:52;;;;;;;3.80;2.30;;;23.40;50.80;;;;;;5066277;28;45288;-66
2023/09/15 09:42:19;;;;;;;4.35;2.80;;;23.50;50.80;;;;;;5065470;28;47565;-66
2023/09/15 09:44:46;;;;;;;3.78;2.28;;;23.50;50.90;;;;;;5065677;28;45354;-66
2023/09/15 09:47:13;;;;;;;4.32;2.30;;;23.50;50.90;;;;;;5065634;28;45507;-66
2023/09/15 09:49:41;;;;;;;4.40;2.03;;;23.60;50.80;;;;;;5065973;28;45195;-66
2023/09/15 09:52:08;;;;;;;6.18;2.80;;;23.60;51.40;;;;;;5065634;28;46718;-66
2023/09/15 09:54:35;;;;;;;3.70;2.10;;;23.60;50.80;;;;;;5065607;28;45372;-66
2023/09/15 09:57:02;;;;;;;3.78;2.53;;;23.70;50.90;;;;;;5065633;28;45299;-66
2023/09/15 09:59:29;;;;;;;4.43;2.25;;;23.70;50.80;;;;;;5065782;28;45151;-66
2023/09/15 10:01:56;;;;;;;4.57;1.85;;;23.70;50.90;;;;;;5065486;28;47561;-66
2023/09/15 10:04:23;;;;;;;4.72;2.10;;;23.80;50.90;;;;;;5065298;28;45194;-66
2023/09/15 10:06:51;;;;;;;3.17;2.20;;;23.80;50.80;;;;;;5065433;28;45411;-66
2023/09/15 10:09:18;;;;;;;3.85;1.98;;;23.80;50.90;;;;;;5065546;28;45299;-66
2023/09/15 10:11:45;;;;;;;2.92;1.92;;;23.90;50.90;;;;;;5065623;28;45341;-66
2023/09/15 10:14:12;;;;;;;3.22;1.92;;;23.90;50.80;;;;;;5065267;28;45193;-66
2023/09/15 10:16:39;;;;;;;5.00;1.77;;;24.00;50.90;;;;;;5065391;28;45145;-66
2023/09/15 10:19:05;;;;;;;4.57;2.10;;;24.00;50.80;;;;;;5065521;28;45436;-66
2023/09/15 10:21:34;;;;;;;2.38;1.83;;;24.00;50.70;;;;;;5065358;28;46417;-66
2023/09/15 10:24:06;;;;;;;3.75;1.90;;;24.10;50.80;;;;;;5065117;28;45254;-66
2023/09/15 10:26:32;;;;;;;3.67;2.20;;;24.10;50.70;;;;;;5065227;28;45196;-66
2023/09/15 10:29:00;;;;;;;5.28;2.53;;;24.20;50.60;;;;;;5065431;28;45289;-67
2023/09/15 10:31:30;;;;;;;5.05;2.40;;;24.20;50.60;;;;;;5066205;28;45243;-66
2023/09/15 10:33:59;;;;;;;3.13;1.88;;;24.30;50.50;;;;;;5068474;28;45321;-66
2023/09/15 10:36:27;;;;;;;6.30;2.10;;;24.30;50.50;;;;;;5068726;28;45181;-66
2023/09/15 10:38:54;;;;;;;2.83;1.80;;;24.40;50.50;;;;;;5068818;28;45242;-66
2023/09/15 10:41:29;;;;;;;4.18;2.05;;;24.40;50.40;;;;;;5073631;28;45402;-65
2023/09/15 10:43:56;;;;;;;3.85;2.15;;;24.50;50.40;;;;;;5088559;27;45360;-66
2023/09/15 10:46:23;;;;;;;4.38;2.05;;;24.50;50.30;;;;;;5088434;27;45318;-66
2023/09/15 10:48:51;;;;;;;5.57;2.20;;;24.60;50.40;;;;;;5083608;27;45527;-64
2023/09/15 10:51:19;;;;;;;3.90;2.22;;;24.60;50.40;;;;;;5087903;27;45640;-65
2023/09/15 10:53:46;;;;;;;5.40;2.28;;;24.70;50.70;;;;;;5080638;27;45428;-66
2023/09/15 10:56:13;;;;;;;3.03;2.25;;;24.70;51.00;;;;;;5085429;27;45440;-63
2023/09/15 10:58:41;;;;;;;3.83;2.25;;;24.70;50.60;;;;;;5087248;27;45445;-66
2023/09/15 11:01:10;;;;;;;4.88;2.40;;;24.80;50.80;;;;;;5083274;28;46651;-65
2023/09/15 11:03:37;;;;;;;4.28;2.60;;;24.80;50.80;;;;;;5081048;27;45232;-65
2023/09/15 11:06:08;;;;;;;4.68;2.30;;;25.00;51.00;;;;;;5087408;27;45256;-64
2023/09/15 11:08:35;;;;;;;5.55;2.15;;;25.00;51.00;;;;;;5088315;28;45265;-63
2023/09/15 11:11:04;;;;;;;5.28;2.70;;;25.10;50.90;;;;;;5080292;27;45637;-66
2023/09/15 11:13:31;;;;;;;4.07;2.63;;;25.10;50.90;;;;;;5084337;27;45443;-64
2023/09/15 11:15:59;;;;;;;4.63;2.33;;;25.20;51.00;;;;;;5080175;27;45445;-66
2023/09/15 11:18:27;;;;;;;3.92;2.50;;;25.30;50.70;;;;;;5086152;27;45521;-65
2023/09/15 11:20:55;;;;;;;2.50;2.22;;;25.40;50.60;;;;;;5085866;27;45615;-67
2023/09/15 11:23:24;;;;;;;4.68;2.80;;;25.40;50.30;;;;;;5087896;27;45238;-66
2023/09/15 11:26:01;;;;;;;5.53;2.40;;;25.50;51.20;;;;;;5087976;27;45321;-64
2023/09/15 11:28:28;;;;;;;5.43;2.78;;;25.50;50.40;;;;;;5088104;27;45349;-64
2023/09/15 11:30:55;;;;;;;3.90;2.97;;;25.60;50.50;;;;;;5087540;27;46329;-64
2023/09/15 11:33:23;;;;;;;9.18;2.83;;;25.60;50.40;;;;;;5087478;27;45232;-65
2023/09/15 11:35:50;;;;;;;5.00;2.47;;;25.70;50.50;;;;;;5081062;27;45630;-66
2023/09/15 11:38:17;;;;;;;4.00;2.72;;;25.70;50.30;;;;;;5082837;28;45536;-65
2023/09/15 11:40:46;;;;;;;6.47;3.85;;;25.80;50.20;;;;;;5085131;27;45409;-65
2023/09/15 11:43:13;;;;;;;5.57;2.65;;;25.90;50.50;;;;;;5066969;28;45196;-65
2023/09/15 11:45:40;;;;;;;3.03;2.63;;;25.90;50.30;;;;;;5067277;28;45332;-64
2023/09/15 11:48:07;;;;;;;3.60;2.85;;;26.00;50.20;;;;;;5067380;28;45285;-65
2023/09/15 11:50:35;;;;;;;3.78;2.70;;;26.00;50.20;;;;;;5067142;28;46530;-64
2023/09/15 11:53:02;;;;;;;5.53;3.00;;;26.10;50.20;;;;;;5072406;28;45289;-64
2023/09/15 11:55:29;;;;;;;5.32;2.47;;;26.10;50.10;;;;;;5082271;27;45452;-66
2023/09/15 11:57:56;;;;;;;3.45;2.55;;;26.10;50.00;;;;;;5089466;27;45311;-65
2023/09/15 12:00:25;;;;;;;3.10;2.70;;;26.20;49.80;;;;;;5080606;27;45562;-66
2023/09/15 12:02:53;;;;;;;5.00;3.40;;;26.20;49.90;;;;;;5089176;27;45322;-65
2023/09/15 12:05:20;;;;;;;7.25;2.97;;;26.30;49.70;;;;;;5087025;27;45276;-65
2023/09/15 12:07:48;;;;;;;3.60;2.67;;;26.40;49.60;;;;;;5091084;27;45542;-65
2023/09/15 12:10:16;;;;;;;3.40;2.90;;;26.40;49.60;;;;;;5089151;27;45274;-65
2023/09/15 12:12:43;;;;;;;5.40;2.75;;;26.50;49.50;;;;;;5086324;27;45390;-65
2023/09/15 12:15:10;;;;;;;3.90;2.60;;;26.50;49.20;;;;;;5085167;27;45330;-66
2023/09/15 12:17:41;;;;;;;4.10;2.42;;;26.60;49.30;;;;;;5083062;27;45376;-64
2023/09/15 12:20:08;;;;;;;6.22;2.75;;;26.70;49.30;;;;;;5086601;27;46442;-65
2023/09/15 12:22:38;;;;;;;5.47;3.10;;;26.70;49.00;;;;;;5084437;27;45360;-66
2023/09/15 12:25:07;;;;;;;3.58;2.70;;;26.80;48.90;;;;;;5086691;27;45353;-65
2023/09/15 12:27:34;;;;;;;4.25;2.45;;;26.80;48.90;;;;;;5086794;27;45352;-65
2023/09/15 12:30:02;;;;;;;4.85;3.13;;;26.90;48.90;;;;;;5086303;27;47274;-65
2023/09/15 12:32:31;;;;;;;3.08;2.58;;;26.90;48.80;;;;;;5086434;27;45380;-64
2023/09/15 12:34:58;;;;;;;3.70;2.53;;;26.90;48.60;;;;;;5087140;27;45201;-64
2023/09/15 12:37:28;;;;;;;3.38;2.63;;;27.00;48.80;;;;;;5083961;27;45441;-62
2023/09/15 12:39:54;;;;;;;3.22;2.78;;;27.00;48.80;;;;;;5086851;27;45413;-65
2023/09/15 12:42:23;;;;;;;4.22;2.95;;;27.10;48.40;;;;;;5079223;27;45408;-66
2023/09/15 12:44:49;;;;;;;2.10;2.00;;;27.10;48.40;;;;;;5093352;27;45351;-65
2023/09/15 12:47:16;;;;;;;3.45;2.67;;;27.20;48.60;;;;;;5086526;27;45390;-65